FW8415 Weather Reports


Display with metric or nautical units.
time (UTC)temp
F
wind
direction
speed
MPH
gust
MPH
rain 1hr
in
rain 24hr
in
rain mn
in
humidity
%
barometer
mb
20240620020328 67 22 2.0 3.0 0.00 0.00 0.00 59 1028.6
20240620015826 67 9 1.0 3.0 0.00 0.00 0.00 59 1028.5
20240620015328 67 35 4.0 5.0 0.00 0.00 0.00 58 1028.5
20240620014427 67 14 2.0 3.0 0.00 0.00 0.00 57 1028.4
20240620014142 68 17 3.0 6.0 0.00 0.00 0.00 57 1028.3
20240620013429 68 22 3.0 4.0 0.00 0.00 0.00 55 1028.2
20240620013127 69 37 4.0 6.0 0.00 0.00 0.00 56 1028.1
20240620012442 69 23 4.0 6.0 0.00 0.00 0.00 55 1028.2
20240620011527 69 352 4.0 7.0 0.00 0.00 0.00 54 1028.2
20240620010926 70 24 3.0 6.0 0.00 0.00 0.00 52 1028.0
20240620010528 70 14 4.0 6.0 0.00 0.00 0.00 53 1028.1
20240620005528 70 20 3.0 6.0 0.00 0.00 0.00 53 1027.6
20240620004428 70 346 4.0 5.0 0.00 0.00 0.00 53 1027.6
20240620003943 70 341 4.0 6.0 0.00 0.00 0.00 53 1027.6
20240620002928 69 1 3.0 5.0 0.00 0.00 0.00 53 1027.6
20240620000429 71 12 3.0 7.0 0.00 0.00 0.00 50 1027.6
20240619235429 72 42 1.0 3.0 0.00 0.00 0.00 49 1027.5
20240619235027 72 1 4.0 7.0 0.00 0.00 0.00 48 1027.5
20240619234528 72 349 5.0 7.0 0.00 0.00 0.00 48 1027.5
20240619234126 72 3 3.0 4.0 0.00 0.00 0.00 48 1027.5
20240619233627 72 316 2.0 3.0 0.00 0.00 0.00 48 1027.5
20240619231443 71 338 2.0 6.0 0.00 0.00 0.00 46 1027.4
20240619230527 72 33 2.0 4.0 0.00 0.00 0.00 45 1027.3
20240619225546 73 323 5.0 8.0 0.00 0.00 0.00 45 1027.1
20240619224726 73 360 7.0 10.0 0.00 0.00 0.00 44 1027.2
20240619224627 73 337 5.0 9.0 0.00 0.00 0.00 44 1027.1
20240619223628 74 320 5.0 8.0 0.00 0.00 0.00 44 1027.2
20240619223527 74 296 2.0 8.0 0.00 0.00 0.00 44 1027.1
20240619222727 73 312 3.0 7.0 0.00 0.00 0.00 44 1027.1
20240619221143 74 352 2.0 5.0 0.00 0.00 0.00 45 1027.2
20240619220728 74 334 4.0 6.0 0.00 0.00 0.00 45 1027.2
20240619215827 73 342 5.0 8.0 0.00 0.00 0.00 47 1027.2
20240619214727 73 29 5.0 8.0 0.00 0.00 0.00 46 1027.3
20240619213728 73 355 2.0 5.0 0.00 0.00 0.00 43 1027.3
20240619213326 74 31 5.0 9.0 0.00 0.00 0.00 44 1027.4
20240619212728 73 355 5.0 7.0 0.00 0.00 0.00 45 1027.3
20240619212043 74 304 4.0 7.0 0.00 0.00 0.00 45 1027.3
20240619211728 74 314 4.0 7.0 0.00 0.00 0.00 45 1027.3
20240619210827 73 273 2.0 5.0 0.00 0.00 0.00 46 1027.2
20240619205828 74 311 3.0 6.0 0.00 0.00 0.00 46 1027.3
20240619205344 73 350 2.0 5.0 0.00 0.00 0.00 46 1027.5
20240619204828 72 70 0.0 1.0 0.00 0.00 0.00 47 1027.3
20240619204326 72 3 3.0 8.0 0.00 0.00 0.00 47 1027.4
20240619203327 72 26 4.0 5.0 0.00 0.00 0.00 46 1027.3
20240619201727 72 311 4.0 9.0 0.00 0.00 0.00 48 1027.5
20240619200628 71 306 3.0 6.0 0.00 0.00 0.00 49 1027.4
20240619200542 71 339 6.0 10.0 0.00 0.00 0.00 50 1027.3
20240619195226 71 316 5.0 9.0 0.00 0.00 0.00 50 1027.4
20240619194527 70 351 4.0 6.0 0.00 0.00 0.00 51 1027.3
20240619194226 70 305 3.0 6.0 0.00 0.00 0.00 51 1027.4
20240619192628 69 349 5.0 7.0 0.00 0.00 0.00 52 1027.4
20240619192326 69 4 5.0 7.0 0.00 0.00 0.00 52 1027.4
20240619191628 69 312 2.0 8.0 0.00 0.00 0.00 52 1027.5
20240619191143 69 315 7.0 10.0 0.00 0.00 0.00 53 1027.5
20240619190628 69 309 3.0 5.0 0.00 0.00 0.00 53 1027.3
20240619185642 69 322 7.0 13.0 0.00 0.00 0.00 53 1027.4
20240619185526 69 344 4.0 6.0 0.00 0.00 0.00 52 1027.4
20240619184326 69 318 4.0 7.0 0.00 0.00 0.00 53 1027.2
20240619183527 70 316 5.0 9.0 0.00 0.00 0.00 52 1027.3
20240619183042 70 337 1.0 4.0 0.00 0.00 0.00 51 1027.3
20240619182527 70 304 1.0 3.0 0.00 0.00 0.00 51 1027.4
20240619181843 70 292 2.0 4.0 0.00 0.00 0.00 52 1027.3
20240619181328 70 317 5.0 10.0 0.00 0.00 0.00 53 1027.2
20240619180827 69 297 1.0 3.0 0.00 0.00 0.00 54 1027.2
20240619180327 69 322 5.0 9.0 0.00 0.00 0.00 54 1027.1
20240619175926 69 348 4.0 7.0 0.00 0.00 0.00 55 1027.1
20240619175327 69 307 3.0 6.0 0.00 0.00 0.00 55 1027.0
20240619174444 69 307 4.0 8.0 0.00 0.00 0.00 55 1026.8
20240619174345 69 316 4.0 8.0 0.00 0.00 0.00 55 1027.0
20240619173326 68 360 4.0 7.0 0.00 0.00 0.00 55 1026.9
20240619172426 68 338 2.0 6.0 0.00 0.00 0.00 56 1026.6
20240619172327 68 316 4.0 7.0 0.00 0.00 0.00 56 1026.6
20240619171426 67 313 3.0 10.0 0.00 0.00 0.00 56 1026.5
20240619171327 67 311 3.0 7.0 0.00 0.00 0.00 55 1026.5
20240619170327 68 319 5.0 11.0 0.00 0.00 0.00 57 1026.5
20240619165626 67 313 2.0 4.0 0.00 0.00 0.00 59 1026.4
20240619165327 67 299 3.0 7.0 0.00 0.00 0.00 59 1026.6
20240619164329 68 272 4.0 9.0 0.00 0.00 0.00 59 1026.5
20240619163329 67 322 4.0 6.0 0.00 0.00 0.00 59 1026.3
20240619163042 67 325 6.0 8.0 0.00 0.00 0.00 60 1026.3
20240619162426 67 279 2.0 7.0 0.00 0.00 0.00 60 1026.3
20240619161428 67 292 6.0 8.0 0.00 0.00 0.00 61 1026.0
20240619161028 67 313 4.0 7.0 0.00 0.00 0.00 61 1026.0
20240619160527 67 245 1.0 4.0 0.00 0.00 0.00 63 1026.2
20240619160127 67 300 4.0 6.0 0.00 0.00 0.00 63 1026.1
20240619154528 66 316 6.0 11.0 0.00 0.00 0.00 62 1025.9
20240619153742 66 298 3.0 9.0 0.00 0.00 0.00 63 1025.8
20240619153527 66 305 5.0 9.0 0.00 0.00 0.00 63 1025.7
20240619152543 66 331 9.0 13.0 0.00 0.00 0.00 63 1025.8
20240619151927 66 281 4.0 9.0 0.00 0.00 0.00 63 1025.6
20240619151527 66 279 6.0 10.0 0.00 0.00 0.00 63 1025.6
20240619150827 66 303 2.0 4.0 0.00 0.00 0.00 64 1025.3
20240619150528 66 302 5.0 10.0 0.00 0.00 0.00 65 1025.2
20240619145842 66 335 6.0 9.0 0.00 0.00 0.00 66 1025.2
20240619144626 65 310 3.0 4.0 0.00 0.00 0.00 67 1025.0
20240619143628 66 313 4.0 6.0 0.00 0.00 0.00 66 1025.0
20240619142626 65 317 5.0 10.0 0.00 0.00 0.00 67 1024.7
20240619142527 65 334 7.0 11.0 0.00 0.00 0.00 67 1024.7
20240619141527 65 331 4.0 7.0 0.00 0.00 0.00 69 1024.3
20240619141144 64 281 3.0 6.0 0.00 0.00 0.00 70 1024.3
20240619140426 64 314 3.0 6.0 0.00 0.00 0.00 70 1024.4
20240619135427 63 316 5.0 8.0 0.00 0.00 0.00 72 1024.3
20240619135325 63 278 5.0 8.0 0.00 0.00 0.00 72 1024.3
20240619134427 63 326 4.0 8.0 0.00 0.00 0.00 73 1024.0
20240619133926 63 319 4.0 7.0 0.00 0.00 0.00 73 1024.2
20240619133326 63 305 3.0 6.0 0.00 0.00 0.00 73 1024.1
20240619132328 63 291 3.0 6.0 0.00 0.00 0.00 74 1024.0
20240619131843 63 251 4.0 7.0 0.00 0.00 0.00 74 1023.8
20240619131344 63 272 2.0 6.0 0.00 0.00 0.00 73 1023.9
20240619130643 63 277 3.0 7.0 0.00 0.00 0.00 74 1023.6
20240619130329 63 277 3.0 6.0 0.00 0.00 0.00 74 1023.7
20240619125426 63 294 4.0 8.0 0.00 0.00 0.00 74 1023.6
20240619125328 62 317 5.0 10.0 0.00 0.00 0.00 74 1023.6
20240619125242 62 306 2.0 6.0 0.00 0.00 0.00 74 1023.5
20240619124326 62 276 2.0 6.0 0.00 0.00 0.00 75 1023.4
20240619124028 62 276 5.0 9.0 0.00 0.00 0.00 74 1023.3
20240619123425 62 281 4.0 7.0 0.00 0.00 0.00 74 1023.3
20240619123028 62 272 2.0 6.0 0.00 0.00 0.00 74 1023.1
20240619122126 62 275 4.0 11.0 0.00 0.00 0.00 75 1022.9
20240619121226 62 307 6.0 13.0 0.00 0.00 0.00 76 1022.7
20240619121027 62 294 6.0 14.0 0.00 0.00 0.00 76 1022.7
20240619115642 63 259 6.0 11.0 0.00 0.00 0.00 77 1022.3
20240619115126 63 273 4.0 13.0 0.00 0.00 0.00 78 1022.0
20240619114127 63 292 1.0 6.0 0.00 0.00 0.00 78 1021.9
20240619113525 63 255 4.0 8.0 0.00 0.00 0.00 78 1021.7
20240619112327 63 275 2.0 5.0 0.00 0.00 0.00 78 1021.5
20240619112128 63 297 2.0 6.0 0.00 0.00 0.00 78 1021.6
20240619111341 63 308 2.0 5.0 0.00 0.00 0.00 79 1021.4
20240619111127 63 300 4.0 7.0 0.00 0.00 0.00 79 1021.3
20240619110126 63 238 2.0 5.0 0.00 0.00 0.00 79 1021.1
20240619105928 63 226 2.0 4.0 0.00 0.00 0.00 79 1021.3
20240619105626 63 238 2.0 4.0 0.00 0.00 0.00 79 1021.2
20240619104727 63 228 4.0 6.0 0.00 0.00 0.00 79 1021.2
20240619104542 63 224 4.0 6.0 0.00 0.00 0.00 79 1020.9
20240619103728 63 269 3.0 5.0 0.00 0.00 0.00 79 1021.0
20240619103626 63 238 4.0 7.0 0.00 0.00 0.00 79 1021.0
20240619102626 63 239 3.0 5.0 0.00 0.00 0.00 79 1020.8
20240619101726 63 245 2.0 4.0 0.00 0.00 0.00 79 1020.5
20240619101426 63 251 3.0 5.0 0.00 0.00 0.00 80 1020.4
20240619100727 63 277 1.0 3.0 0.00 0.00 0.00 80 1020.3
20240619095627 63 300 2.0 4.0 0.00 0.00 0.00 80 1019.8
20240619094726 64 256 1.0 3.0 0.00 0.00 0.00 81 1019.7
20240619093925 64 269 2.0 6.0 0.00 0.00 0.00 82 1019.5
20240619093728 64 278 2.0 9.0 0.00 0.00 0.00 82 1019.4
20240619092925 65 303 3.0 10.0 0.00 0.00 0.00 83 1019.0
20240619092628 65 236 5.0 7.0 0.00 0.00 0.00 83 1018.9
20240619091426 65 276 3.0 8.0 0.00 0.00 0.00 84 1018.6
20240619090626 65 286 5.0 15.0 0.00 0.00 0.00 84 1018.5
20240619090426 66 267 3.0 9.0 0.00 0.00 0.00 85 1018.5
20240619085427 66 300 1.0 4.0 0.00 0.00 0.00 85 1018.3
20240619085326 66 220 1.0 3.0 0.00 0.00 0.00 85 1018.2
20240619084429 66 244 2.0 4.0 0.00 0.00 0.00 85 1018.1
20240619084226 66 261 3.0 7.0 0.00 0.00 0.00 85 1018.1
20240619083425 66 239 4.0 11.0 0.00 0.00 0.00 85 1018.1
20240619083043 66 247 3.0 8.0 0.00 0.00 0.00 85 1018.0
20240619082428 66 264 5.0 9.0 0.00 0.00 0.00 85 1018.0
20240619081426 66 242 6.0 11.0 0.00 0.00 0.00 86 1017.9
20240619080526 67 232 8.0 16.0 0.00 0.00 0.00 86 1017.7
20240619080326 67 238 4.0 9.0 0.00 0.00 0.00 86 1017.8
20240619075527 67 231 7.0 11.0 0.00 0.00 0.00 86 1017.6
20240619075443 67 231 5.0 10.0 0.00 0.00 0.00 86 1017.5
20240619074427 67 226 4.0 7.0 0.00 0.00 0.00 86 1017.3
20240619074125 67 277 2.0 5.0 0.00 0.00 0.00 86 1017.2
20240619073428 67 254 2.0 5.0 0.00 0.00 0.00 86 1016.9
20240619072442 67 294 1.0 4.0 0.00 0.00 0.00 86 1016.8
20240619071527 67 267 4.0 9.0 0.00 0.00 0.00 86 1016.8
20240619071141 67 228 7.0 13.0 0.00 0.00 0.00 86 1016.5
20240619070442 67 242 4.0 11.0 0.00 0.00 0.00 86 1016.4
20240619065741 68 232 2.0 6.0 0.00 0.00 0.00 86 1016.4
20240619065527 68 235 6.0 8.0 0.00 0.00 0.00 86 1016.2
20240619064627 68 248 5.0 9.0 0.00 0.00 0.00 87 1016.2
20240619064426 68 269 3.0 6.0 0.00 0.00 0.00 87 1016.2
20240619063627 68 233 4.0 11.0 0.00 0.00 0.00 87 1016.0
20240619063426 68 242 3.0 6.0 0.00 0.00 0.00 87 1016.0
20240619062642 69 230 4.0 10.0 0.00 0.00 0.00 88 1015.8
20240619061841 69 233 3.0 6.0 0.00 0.00 0.00 87 1015.3
20240619061726 69 234 1.0 4.0 0.00 0.00 0.00 87 1015.3
20240619060742 69 252 2.0 5.0 0.00 0.00 0.00 87 1015.2
20240619060627 69 242 3.0 6.0 0.00 0.00 0.00 87 1015.1
20240619055626 69 235 6.0 9.0 0.00 0.00 0.00 87 1014.9
20240619055542 69 242 4.0 11.0 0.00 0.00 0.00 87 1014.9
20240619054643 69 307 3.0 9.0 0.00 0.00 0.00 87 1014.6
20240619053127 70 252 3.0 8.0 0.00 0.00 0.00 87 1014.4
20240619052725 70 250 2.0 7.0 0.00 0.00 0.00 87 1014.4
20240619051728 70 237 5.0 10.0 0.00 0.00 0.00 87 1014.4
20240619051026 70 251 4.0 11.0 0.00 0.00 0.00 88 1013.9
20240619050728 70 230 5.0 9.0 0.00 0.00 0.00 88 1013.7
20240619044824 71 232 8.0 13.0 0.00 0.00 0.00 88 1013.8
20240619044623 71 228 6.0 9.0 0.00 0.00 0.00 88 1013.9
20240619043825 71 227 5.0 11.0 0.00 0.00 0.00 87 1014.0
20240619043624 71 218 5.0 8.0 0.00 0.00 0.00 88 1014.0
20240619041823 71 215 4.0 6.0 0.00 0.00 0.00 88 1013.4
20240619041438 71 235 4.0 7.0 0.00 0.00 0.00 88 1013.1
20240619035822 71 232 3.0 5.0 0.00 0.00 0.00 88 1012.6
20240619035724 71 240 2.0 5.0 0.00 0.00 0.00 88 1012.7
20240619034740 71 241 1.0 3.0 0.00 0.00 0.00 87 1012.2
20240619034438 72 269 2.0 4.0 0.00 0.00 0.00 87 1011.8
20240619033723 71 246 3.0 7.0 0.00 0.00 0.00 87 1011.6
20240619033439 72 281 2.0 6.0 0.00 0.00 0.00 86 1011.4
20240619032523 72 279 4.0 9.0 0.00 0.00 0.00 86 1011.3
20240619031622 72 229 3.0 7.0 0.00 0.00 0.00 86 1011.7
20240619031123 72 230 6.0 11.0 0.00 0.00 0.00 86 1011.4
20240619030625 73 270 3.0 8.0 0.00 0.00 0.00 86 1011.3
20240619025838 73 228 8.0 15.0 0.00 0.00 0.00 86 1011.1
20240619025324 74 276 2.0 4.0 0.00 0.00 0.00 85 1010.7
20240619024922 74 237 8.0 19.0 0.00 0.00 0.00 85 1010.9
20240619024341 74 260 6.0 11.0 0.00 0.00 0.00 85 1010.5
20240619023923 75 262 4.0 13.0 0.00 0.00 0.00 85 1010.2
20240619023424 75 235 6.0 11.0 0.00 0.00 0.00 86 1010.1
20240619022722 76 232 6.0 10.0 0.00 0.00 0.00 85 1009.6
20240619022522 76 263 2.0 4.0 0.00 0.00 0.00 85 1009.5